Time;durP1;ratioP1;P1;durP2;ratioP2;P2;SDS_P1;SDS_P2;PMS_P1;PMS_P2;Temp;Humidity;BMP_temperature;BMP_pressure;BME280_temperature;BME280_humidity;BME280_pressure;Samples;Min_cycle;Max_cycle;Signal;HPM_P1;HPM_P2
2022/04/04 00:02:06;;;;;;;;;;;21.70;46.00;;;;;;5097050;28;19924;-44
2022/04/04 00:04:36;;;;;;;;;;;21.70;46.00;;;;;;5096882;28;19931;-44
2022/04/04 00:07:04;;;;;;;;;;;21.70;46.00;;;;;;5096528;28;20429;-43
2022/04/04 00:09:31;;;;;;;;;;;21.70;46.00;;;;;;5097279;28;19935;-46
2022/04/04 00:11:58;;;;;;;;;;;21.70;46.00;;;;;;5097165;28;19932;-45
2022/04/04 00:14:24;;;;;;;;;;;21.60;46.00;;;;;;5096902;28;19924;-43
2022/04/04 00:16:51;;;;;;;;;;;21.60;46.00;;;;;;5096840;28;19978;-42
2022/04/04 00:19:19;;;;;;;;;;;21.60;46.00;;;;;;5096564;28;19924;-43
2022/04/04 00:21:45;;;;;;;;;;;21.60;46.00;;;;;;5096633;28;20391;-42
2022/04/04 00:24:12;;;;;;;;;;;21.60;46.10;;;;;;5076129;28;19968;-43
2022/04/04 00:26:39;;;;;;;;;;;21.60;46.10;;;;;;5058461;28;19924;-42
2022/04/04 00:29:06;;;;;;;;;;;21.60;46.00;;;;;;5058930;28;19924;-42
2022/04/04 00:31:33;;;;;;;;;;;21.60;46.00;;;;;;5076638;28;19948;-42
2022/04/04 00:34:00;;;;;;;;;;;21.60;46.00;;;;;;5076023;28;19986;-42
2022/04/04 00:36:27;;;;;;;;;;;21.60;46.00;;;;;;5076347;28;20313;-42
2022/04/04 00:38:54;;;;;;;;;;;21.60;46.00;;;;;;5075709;28;19925;-42
2022/04/04 00:41:21;;;;;;;;;;;21.60;45.90;;;;;;5076144;28;19935;-42
2022/04/04 00:43:52;;;;;;;;;;;21.60;46.00;;;;;;5076398;28;19929;-43
2022/04/04 00:46:19;;;;;;;;;;;21.60;46.00;;;;;;5075756;28;19959;-42
2022/04/04 00:48:46;;;;;;;;;;;21.60;46.00;;;;;;5075776;28;20288;-42
2022/04/04 00:51:13;;;;;;;;;;;21.60;46.00;;;;;;5076136;28;19924;-42
2022/04/04 00:53:41;;;;;;;;;;;21.60;46.00;;;;;;5087722;28;19925;-43
2022/04/04 00:56:08;;;;;;;;;;;21.60;45.90;;;;;;5096028;28;19964;-41
2022/04/04 00:58:37;;;;;;;;;;;21.60;46.00;;;;;;5096213;28;19970;-42
2022/04/04 01:01:05;;;;;;;;;;;21.60;46.00;;;;;;5095796;28;19981;-42
2022/04/04 01:03:32;;;;;;;;;;;21.60;46.00;;;;;;5078404;28;19924;-42
2022/04/04 01:05:59;;;;;;;;;;;21.60;45.90;;;;;;5096143;28;20019;-42
2022/04/04 01:08:26;;;;;;;;;;;21.60;45.90;;;;;;5077038;28;19924;-42
2022/04/04 01:10:53;;;;;;;;;;;21.60;45.90;;;;;;5095909;28;20295;-42
2022/04/04 01:13:20;;;;;;;;;;;21.60;46.00;;;;;;5077782;28;19982;-42
2022/04/04 01:15:48;;;;;;;;;;;21.60;45.90;;;;;;5096043;28;20024;-42
2022/04/04 01:18:15;;;;;;;;;;;21.60;45.90;;;;;;5095878;28;19994;-42
2022/04/04 01:20:42;;;;;;;;;;;21.60;45.90;;;;;;5095294;28;19928;-42
2022/04/04 01:23:12;;;;;;;;;;;21.60;45.90;;;;;;5090257;28;19924;-42
2022/04/04 01:25:39;;;;;;;;;;;21.60;45.90;;;;;;5075396;28;19924;-42
2022/04/04 01:28:06;;;;;;;;;;;21.60;45.90;;;;;;5075130;28;19957;-42
2022/04/04 01:30:33;;;;;;;;;;;21.70;46.50;;;;;;5057819;28;19924;-42
2022/04/04 01:33:00;;;;;;;;;;;21.60;45.90;;;;;;5075155;28;19924;-42
2022/04/04 01:35:27;;;;;;;;;;;21.60;45.90;;;;;;5075104;28;19986;-42
2022/04/04 01:37:54;;;;;;;;;;;21.60;45.90;;;;;;5076368;28;19928;-42
2022/04/04 01:40:22;;;;;;;;;;;21.60;46.00;;;;;;5095209;28;19978;-42
2022/04/04 01:42:50;;;;;;;;;;;21.60;45.90;;;;;;5095176;28;19924;-41
2022/04/04 01:45:17;;;;;;;;;;;21.60;45.90;;;;;;5095471;28;19924;-42
2022/04/04 01:47:45;;;;;;;;;;;21.60;46.00;;;;;;5095521;28;19924;-42
2022/04/04 01:50:13;;;;;;;;;;;21.60;46.00;;;;;;5095177;28;19924;-42
2022/04/04 01:52:40;;;;;;;;;;;21.60;46.00;;;;;;5095184;28;19924;-43
2022/04/04 01:55:07;;;;;;;;;;;21.60;46.00;;;;;;5093967;28;20326;-43
2022/04/04 01:57:35;;;;;;;;;;;21.60;46.00;;;;;;5094778;28;19983;-42
2022/04/04 02:00:03;;;;;;;;;;;21.60;45.90;;;;;;5094242;28;19969;-42
2022/04/04 02:02:30;;;;;;;;;;;21.60;46.00;;;;;;5095163;28;19928;-42
2022/04/04 02:04:58;;;;;;;;;;;21.60;46.00;;;;;;5095081;28;19924;-42
2022/04/04 02:07:25;;;;;;;;;;;21.60;46.00;;;;;;5094616;28;19925;-44
2022/04/04 02:09:53;;;;;;;;;;;21.60;46.00;;;;;;5076093;28;19924;-42
2022/04/04 02:12:20;;;;;;;;;;;21.60;46.00;;;;;;5094560;28;19924;-42
2022/04/04 02:14:47;;;;;;;;;;;21.60;46.00;;;;;;5076631;28;19950;-42
2022/04/04 02:17:14;;;;;;;;;;;21.60;46.00;;;;;;5094886;28;20341;-42
2022/04/04 02:19:41;;;;;;;;;;;21.60;46.00;;;;;;5094207;28;19924;-42
2022/04/04 02:22:09;;;;;;;;;;;21.60;46.00;;;;;;5094592;28;19940;-43
2022/04/04 02:24:36;;;;;;;;;;;21.50;45.90;;;;;;5081593;28;19947;-44
2022/04/04 02:27:03;;;;;;;;;;;21.60;46.00;;;;;;5074036;28;19924;-42
2022/04/04 02:29:30;;;;;;;;;;;21.60;46.00;;;;;;5074382;28;19924;-43
2022/04/04 02:31:57;;;;;;;;;;;21.60;46.00;;;;;;5074028;28;19924;-42
2022/04/04 02:34:24;;;;;;;;;;;21.50;46.00;;;;;;5074350;28;20368;-42
2022/04/04 02:36:51;;;;;;;;;;;21.50;46.00;;;;;;5074273;28;19928;-42
2022/04/04 02:39:18;;;;;;;;;;;21.50;46.00;;;;;;5081612;28;19970;-42
2022/04/04 02:41:45;;;;;;;;;;;21.50;46.00;;;;;;5094119;28;20379;-42
2022/04/04 02:44:12;;;;;;;;;;;21.60;46.00;;;;;;5093987;28;19984;-44
2022/04/04 02:46:39;;;;;;;;;;;21.60;46.00;;;;;;5094057;28;19924;-42
2022/04/04 02:49:06;;;;;;;;;;;21.60;46.00;;;;;;5094518;28;20334;-42
2022/04/04 02:51:33;;;;;;;;;;;21.60;45.90;;;;;;5093979;28;19970;-42
2022/04/04 02:54:00;;;;;;;;;;;21.60;46.00;;;;;;5093173;28;20287;-43
2022/04/04 02:56:30;;;;;;;;;;;21.60;46.00;;;;;;5094238;28;20324;-42
2022/04/04 02:58:58;;;;;;;;;;;21.50;45.90;;;;;;5094119;28;19924;-45
2022/04/04 03:01:25;;;;;;;;;;;21.50;46.00;;;;;;5082617;28;19924;-42
2022/04/04 03:03:52;;;;;;;;;;;21.50;45.90;;;;;;5073908;28;19924;-44
2022/04/04 03:06:19;;;;;;;;;;;21.50;45.90;;;;;;5073845;28;19955;-44
2022/04/04 03:08:46;;;;;;;;;;;21.50;45.90;;;;;;5074597;28;20334;-42
2022/04/04 03:11:14;;;;;;;;;;;21.50;45.80;;;;;;5093671;28;19924;-42
2022/04/04 03:13:41;;;;;;;;;;;21.50;45.90;;;;;;5093429;28;19950;-44
2022/04/04 03:16:08;;;;;;;;;;;21.50;45.90;;;;;;5093582;28;19931;-42
2022/04/04 03:18:36;;;;;;;;;;;21.50;45.90;;;;;;5076034;28;19963;-42
2022/04/04 03:21:03;;;;;;;;;;;21.50;45.90;;;;;;5093265;28;20014;-45
2022/04/04 03:23:31;;;;;;;;;;;21.50;45.90;;;;;;5093586;28;19963;-42
2022/04/04 03:25:58;;;;;;;;;;;21.50;45.90;;;;;;5092266;28;19924;-42
2022/04/04 03:28:25;;;;;;;;;;;21.50;45.90;;;;;;5093467;28;20329;-44
2022/04/04 03:30:53;;;;;;;;;;;21.50;45.90;;;;;;5093878;28;19931;-43
2022/04/04 03:33:20;;;;;;;;;;;21.50;45.90;;;;;;5093762;28;19975;-42
2022/04/04 03:35:49;;;;;;;;;;;21.50;45.90;;;;;;5093618;28;19924;-42
2022/04/04 03:38:16;;;;;;;;;;;21.50;46.00;;;;;;5093713;28;19928;-44
2022/04/04 03:40:44;;;;;;;;;;;21.50;46.00;;;;;;5092901;28;19924;-46
2022/04/04 03:43:12;;;;;;;;;;;21.50;46.00;;;;;;5093433;28;19928;-43
2022/04/04 03:45:39;;;;;;;;;;;21.50;46.00;;;;;;5093343;28;19949;-42
2022/04/04 03:48:06;;;;;;;;;;;21.50;46.00;;;;;;5093138;28;19978;-42
2022/04/04 03:50:34;;;;;;;;;;;21.50;46.00;;;;;;5093051;28;19978;-43
2022/04/04 03:53:04;;;;;;;;;;;21.50;46.00;;;;;;5093203;28;19977;-44
2022/04/04 03:55:33;;;;;;;;;;;21.50;46.00;;;;;;5092625;28;19989;-44
2022/04/04 03:58:00;;;;;;;;;;;21.50;46.00;;;;;;5093144;28;20326;-42
2022/04/04 04:00:27;;;;;;;;;;;21.50;46.00;;;;;;5093474;28;20261;-43
2022/04/04 04:02:54;;;;;;;;;;;21.50;46.00;;;;;;5093256;28;19967;-44
2022/04/04 04:05:21;;;;;;;;;;;21.50;46.00;;;;;;5093543;28;19928;-42
2022/04/04 04:07:48;;;;;;;;;;;21.50;46.00;;;;;;5093018;28;20015;-43
2022/04/04 04:10:16;;;;;;;;;;;21.40;46.00;;;;;;5066722;28;19929;-42
2022/04/04 04:12:43;;;;;;;;;;;21.40;46.00;;;;;;5074887;28;19925;-42
2022/04/04 04:15:15;;;;;;;;;;;21.50;46.00;;;;;;5092391;28;19924;-42
2022/04/04 04:17:42;;;;;;;;;;;21.40;46.00;;;;;;5093078;28;20341;-42
2022/04/04 04:20:31;;;;;;;;;;;21.40;46.00;;;;;;5092640;28;20430;-43
2022/04/04 04:23:00;;;;;;;;;;;21.40;46.00;;;;;;5094791;28;19924;-43
2022/04/04 04:25:28;;;;;;;;;;;21.40;46.00;;;;;;5095458;28;19932;-44
2022/04/04 04:27:57;;;;;;;;;;;21.40;46.00;;;;;;5097113;28;19993;-42
2022/04/04 04:30:24;;;;;;;;;;;21.40;46.00;;;;;;5096642;28;19972;-45
2022/04/04 04:32:53;;;;;;;;;;;21.40;46.00;;;;;;5096846;28;20022;-42
2022/04/04 04:35:20;;;;;;;;;;;21.40;46.00;;;;;;5096541;28;20388;-42
2022/04/04 04:37:47;;;;;;;;;;;21.40;46.00;;;;;;5096898;28;19924;-44
2022/04/04 04:40:15;;;;;;;;;;;21.40;46.00;;;;;;5095950;28;19977;-42
2022/04/04 04:42:42;;;;;;;;;;;21.40;46.00;;;;;;5078469;28;19929;-43
2022/04/04 04:45:10;;;;;;;;;;;21.40;46.00;;;;;;5076042;28;20387;-45
2022/04/04 04:47:37;;;;;;;;;;;21.40;45.90;;;;;;5076185;28;19925;-42
2022/04/04 04:50:10;;;;;;;;;;;21.40;46.00;;;;;;5059073;28;20015;-42
2022/04/04 04:52:37;;;;;;;;;;;21.40;46.00;;;;;;5076253;28;19928;-42
2022/04/04 04:55:07;;;;;;;;;;;21.40;46.00;;;;;;5075866;28;19935;-43
2022/04/04 04:57:34;;;;;;;;;;;21.40;45.90;;;;;;5075740;28;19925;-42
2022/04/04 05:00:03;;;;;;;;;;;21.40;45.90;;;;;;5075930;28;19929;-42
2022/04/04 05:02:31;;;;;;;;;;;21.40;45.90;;;;;;5076209;28;19928;-42
2022/04/04 05:04:58;;;;;;;;;;;21.40;45.90;;;;;;5075669;28;19925;-42
2022/04/04 05:07:25;;;;;;;;;;;21.40;46.00;;;;;;5076077;28;19925;-43
2022/04/04 05:09:52;;;;;;;;;;;21.40;45.90;;;;;;5075674;28;19936;-44
2022/04/04 05:12:19;;;;;;;;;;;21.40;45.90;;;;;;5095433;28;20392;-44
2022/04/04 05:14:48;;;;;;;;;;;21.50;46.00;;;;;;5096077;28;19931;-42
2022/04/04 05:17:15;;;;;;;;;;;21.40;45.90;;;;;;5096155;28;19966;-44
2022/04/04 05:19:42;;;;;;;;;;;21.50;45.90;;;;;;5095468;28;20011;-42
2022/04/04 05:22:09;;;;;;;;;;;21.50;45.90;;;;;;5095647;28;20392;-42
2022/04/04 05:24:36;;;;;;;;;;;21.50;45.90;;;;;;5077733;28;19982;-43
2022/04/04 05:27:03;;;;;;;;;;;21.50;45.80;;;;;;5078943;28;19925;-44
2022/04/04 05:29:30;;;;;;;;;;;21.50;45.80;;;;;;5075325;28;19970;-44
2022/04/04 05:31:57;;;;;;;;;;;21.50;45.80;;;;;;5075420;28;19924;-42
2022/04/04 05:34:27;;;;;;;;;;;21.50;45.80;;;;;;5074193;28;20042;-45
2022/04/04 05:36:59;;;;;;;;;;;21.50;45.80;;;;;;5075559;28;20327;-45
2022/04/04 05:39:26;;;;;;;;;;;21.50;45.80;;;;;;5075105;28;19924;-46
2022/04/04 05:41:53;;;;;;;;;;;21.50;45.80;;;;;;5075243;28;20269;-50
2022/04/04 05:44:20;;;;;;;;;;;21.50;45.80;;;;;;5075237;28;19925;-43
2022/04/04 05:46:47;;;;;;;;;;;21.50;45.80;;;;;;5075167;28;19987;-44
2022/04/04 05:49:15;;;;;;;;;;;21.50;45.80;;;;;;5074691;28;19986;-45
2022/04/04 05:51:43;;;;;;;;;;;21.50;45.70;;;;;;5056888;28;19929;-43
2022/04/04 05:54:27;;;;;;;;;;;21.50;45.70;;;;;;5074649;28;19928;-43
2022/04/04 05:56:54;;;;;;;;;;;21.50;45.80;;;;;;5086687;28;19977;-41
2022/04/04 05:59:23;;;;;;;;;;;21.50;45.70;;;;;;5095101;28;19924;-48
2022/04/04 06:01:50;;;;;;;;;;;21.50;45.80;;;;;;5094904;28;19924;-45
2022/04/04 06:04:17;;;;;;;;;;;21.50;45.70;;;;;;5094679;28;19973;-43
2022/04/04 06:06:44;;;;;;;;;;;21.50;45.70;;;;;;5077221;28;20329;-44
2022/04/04 06:09:11;;;;;;;;;;;21.50;45.70;;;;;;5094692;28;19923;-45
2022/04/04 06:11:38;;;;;;;;;;;21.60;45.70;;;;;;5084955;28;19978;-48
2022/04/04 06:14:05;;;;;;;;;;;21.50;45.60;;;;;;5088437;28;20391;-50
2022/04/04 06:16:32;;;;;;;;;;;21.60;45.70;;;;;;5076927;28;19928;-48
2022/04/04 06:18:59;;;;;;;;;;;21.60;45.60;;;;;;5094586;28;19931;-48
2022/04/04 06:21:26;;;;;;;;;;;21.60;45.60;;;;;;5094245;28;19924;-47
2022/04/04 06:23:53;;;;;;;;;;;21.60;45.70;;;;;;5094851;28;19974;-46
2022/04/04 06:26:20;;;;;;;;;;;21.60;45.60;;;;;;5088687;28;19930;-44
2022/04/04 06:28:47;;;;;;;;;;;21.60;45.60;;;;;;5074521;28;19928;-45
2022/04/04 06:31:15;;;;;;;;;;;21.60;45.60;;;;;;5056270;28;19946;-48
2022/04/04 06:33:42;;;;;;;;;;;21.60;45.50;;;;;;5074048;28;19928;-46
2022/04/04 06:36:09;;;;;;;;;;;21.60;45.50;;;;;;5074012;28;19968;-45
2022/04/04 06:38:36;;;;;;;;;;;21.60;45.50;;;;;;5074008;28;19931;-45
2022/04/04 06:41:04;;;;;;;;;;;21.60;45.50;;;;;;5074746;28;19935;-44
2022/04/04 06:43:31;;;;;;;;;;;21.60;45.50;;;;;;5094206;28;19924;-47
2022/04/04 06:46:00;;;;;;;;;;;21.60;45.40;;;;;;5094176;28;19977;-50
2022/04/04 06:48:27;;;;;;;;;;;21.70;45.50;;;;;;5094077;28;19925;-45
2022/04/04 06:50:54;;;;;;;;;;;21.70;45.50;;;;;;5094634;28;19931;-45
2022/04/04 06:53:21;;;;;;;;;;;21.70;45.40;;;;;;5094362;28;19954;-42
2022/04/04 06:55:49;;;;;;;;;;;21.70;45.40;;;;;;5093778;28;19938;-48
2022/04/04 06:58:16;;;;;;;;;;;21.70;45.40;;;;;;5074942;28;20354;-48
2022/04/04 07:00:45;;;;;;;;;;;21.70;45.40;;;;;;5073677;28;19975;-47
2022/04/04 07:03:13;;;;;;;;;;;21.70;45.40;;;;;;5073576;28;19928;-47
2022/04/04 07:05:40;;;;;;;;;;;21.70;45.40;;;;;;5055843;28;19928;-43
2022/04/04 07:08:08;;;;;;;;;;;21.70;45.30;;;;;;5085405;28;20294;-42
2022/04/04 07:10:35;;;;;;;;;;;21.70;45.30;;;;;;5093824;28;19924;-44
2022/04/04 07:13:02;;;;;;;;;;;21.70;45.30;;;;;;5093090;28;20011;-44
2022/04/04 07:15:29;;;;;;;;;;;21.70;45.30;;;;;;5093549;28;19979;-43
2022/04/04 07:17:56;;;;;;;;;;;21.70;45.30;;;;;;5094017;28;19924;-44
2022/04/04 07:20:23;;;;;;;;;;;21.70;45.20;;;;;;5093469;28;20334;-42
2022/04/04 07:22:51;;;;;;;;;;;21.70;45.20;;;;;;5094006;28;19924;-45
2022/04/04 07:25:18;;;;;;;;;;;21.80;45.30;;;;;;5075862;28;19924;-45
2022/04/04 07:27:46;;;;;;;;;;;21.70;45.20;;;;;;5092625;28;19931;-44
2022/04/04 07:30:16;;;;;;;;;;;21.80;45.20;;;;;;5093924;28;19931;-43
2022/04/04 07:32:44;;;;;;;;;;;21.80;45.80;;;;;;5093789;28;20330;-49
2022/04/04 07:35:11;;;;;;;;;;;21.80;45.20;;;;;;5093677;28;20363;-43
2022/04/04 07:37:40;;;;;;;;;;;21.80;45.10;;;;;;5093518;28;19924;-45
2022/04/04 07:40:10;;;;;;;;;;;21.80;45.10;;;;;;5093507;28;19924;-44
2022/04/04 07:42:38;;;;;;;;;;;21.80;45.00;;;;;;5084043;28;19932;-43
2022/04/04 07:45:06;;;;;;;;;;;21.80;45.00;;;;;;5073282;28;19974;-41
2022/04/04 07:47:33;;;;;;;;;;;21.90;45.00;;;;;;5073548;28;20363;-44
2022/04/04 07:50:01;;;;;;;;;;;21.90;45.00;;;;;;5073464;28;19931;-45
2022/04/04 07:52:28;;;;;;;;;;;21.90;45.00;;;;;;5055216;28;19924;-45
2022/04/04 07:54:55;;;;;;;;;;;21.90;45.00;;;;;;5073141;28;19924;-44
2022/04/04 07:57:22;;;;;;;;;;;21.90;45.00;;;;;;5073435;28;19971;-44
2022/04/04 07:59:51;;;;;;;;;;;21.90;44.90;;;;;;5077261;28;19986;-44
2022/04/04 08:02:18;;;;;;;;;;;22.00;44.90;;;;;;5077267;28;19928;-44
2022/04/04 08:04:46;;;;;;;;;;;22.00;44.90;;;;;;5077261;28;19925;-47
2022/04/04 08:07:13;;;;;;;;;;;22.00;44.80;;;;;;5076689;28;19971;-43
2022/04/04 08:09:40;;;;;;;;;;;22.00;44.70;;;;;;5076854;28;19932;-43
2022/04/04 08:12:07;;;;;;;;;;;22.00;44.70;;;;;;5076136;28;19928;-42
2022/04/04 08:14:36;;;;;;;;;;;22.10;44.70;;;;;;5076758;28;19928;-45
2022/04/04 08:17:04;;;;;;;;;;;22.10;44.70;;;;;;5076582;28;19932;-49
2022/04/04 08:19:32;;;;;;;;;;;22.10;44.60;;;;;;5076433;28;19931;-47
2022/04/04 08:21:59;;;;;;;;;;;22.10;44.60;;;;;;5080414;28;20133;-45
2022/04/04 08:24:26;;;;;;;;;;;22.20;44.60;;;;;;5095101;28;19967;-47
2022/04/04 08:26:53;;;;;;;;;;;22.20;44.60;;;;;;5094375;28;19936;-44
2022/04/04 08:29:20;;;;;;;;;;;22.20;44.60;;;;;;5094807;28;19931;-42
2022/04/04 08:31:47;;;;;;;;;;;22.20;44.50;;;;;;5095448;28;20398;-42
2022/04/04 08:34:15;;;;;;;;;;;22.20;44.50;;;;;;5095694;28;19924;-45
2022/04/04 08:36:42;;;;;;;;;;;22.20;44.40;;;;;;5095480;28;19977;-45
2022/04/04 08:39:09;;;;;;;;;;;22.20;44.40;;;;;;5095860;28;19924;-42
2022/04/04 08:41:36;;;;;;;;;;;22.20;44.40;;;;;;5095663;28;19924;-47
2022/04/04 08:44:04;;;;;;;;;;;22.30;44.50;;;;;;5079458;28;19924;-42
2022/04/04 08:46:33;;;;;;;;;;;22.30;44.40;;;;;;5074105;28;19924;-43
2022/04/04 08:49:04;;;;;;;;;;;22.30;44.40;;;;;;5075252;28;20349;-45
2022/04/04 08:51:31;;;;;;;;;;;22.30;44.40;;;;;;5075099;28;19924;-44
2022/04/04 08:53:59;;;;;;;;;;;22.30;44.40;;;;;;5074885;28;19982;-44
2022/04/04 08:56:26;;;;;;;;;;;22.40;44.40;;;;;;5074459;28;20365;-42
2022/04/04 08:58:54;;;;;;;;;;;22.40;44.40;;;;;;5087270;28;19936;-45
2022/04/04 09:01:22;;;;;;;;;;;22.40;44.30;;;;;;5094988;28;20303;-46
2022/04/04 09:04:01;;;;;;;;;;;22.40;44.30;;;;;;5095128;28;19924;-41
2022/04/04 09:06:29;;;;;;;;;;;22.40;44.20;;;;;;5094232;28;20051;-43
2022/04/04 09:08:56;;;;;;;;;;;22.40;44.20;;;;;;5094980;28;19970;-41
2022/04/04 09:11:23;;;;;;;;;;;22.50;44.20;;;;;;5094921;28;20429;-42
2022/04/04 09:14:11;;;;;;;;;;;22.40;44.10;;;;;;5093822;28;19970;-43
2022/04/04 09:16:52;;;;;;;;;;;22.50;44.20;;;;;;5094302;28;19971;-45
2022/04/04 09:19:29;;;;;;;;;;;22.50;44.10;;;;;;5094332;28;20022;-44
2022/04/04 09:21:57;;;;;;;;;;;22.50;44.10;;;;;;5094730;28;20364;-47
2022/04/04 09:24:41;;;;;;;;;;;22.50;44.00;;;;;;5095431;28;19963;-42
2022/04/04 09:27:27;;;;;;;;;;;22.60;44.10;;;;;;5095449;28;20023;-44
2022/04/04 09:30:02;;;;;;;;;;;22.60;44.00;;;;;;5094756;28;19924;-45
2022/04/04 09:32:39;;;;;;;;;;;22.60;44.00;;;;;;5095317;28;20069;-49
2022/04/04 09:35:13;;;;;;;;;;;22.60;44.00;;;;;;5095735;28;20019;-47
2022/04/04 09:37:42;;;;;;;;;;;22.70;44.00;;;;;;5095756;28;19924;-48
2022/04/04 09:40:09;;;;;;;;;;;22.70;44.00;;;;;;5095549;28;19973;-47
2022/04/04 09:43:01;;;;;;;;;;;22.70;43.90;;;;;;5095399;28;20395;-42
2022/04/04 09:45:29;;;;;;;;;;;22.70;43.80;;;;;;5095661;28;20010;-47
2022/04/04 09:48:00;;;;;;;;;;;22.70;43.80;;;;;;5095536;28;20387;-45
2022/04/04 09:50:30;;;;;;;;;;;22.70;43.80;;;;;;5095063;28;19931;-46
2022/04/04 09:52:57;;;;;;;;;;;22.70;43.80;;;;;;5095408;28;20272;-50
2022/04/04 09:55:28;;;;;;;;;;;22.80;43.80;;;;;;5077468;28;20027;-47
2022/04/04 09:57:57;;;;;;;;;;;22.80;43.80;;;;;;5095410;28;19931;-45
2022/04/04 10:00:25;;;;;;;;;;;22.80;43.80;;;;;;5094123;28;20470;-42
2022/04/04 10:02:54;;;;;;;;;;;22.80;43.70;;;;;;5094830;28;19924;-42
2022/04/04 10:05:21;;;;;;;;;;;22.80;43.70;;;;;;5094801;28;20447;-42
2022/04/04 10:07:49;;;;;;;;;;;22.80;43.70;;;;;;5095180;28;19924;-45
2022/04/04 10:10:24;;;;;;;;;;;22.90;43.70;;;;;;5095076;28;19946;-42
2022/04/04 10:12:52;;;;;;;;;;;22.90;43.60;;;;;;5094794;28;19973;-42
2022/04/04 10:15:20;;;;;;;;;;;22.90;43.60;;;;;;5059169;28;20375;-43
2022/04/04 10:17:48;;;;;;;;;;;22.90;43.60;;;;;;5074554;28;19924;-43
2022/04/04 10:20:15;;;;;;;;;;;23.00;43.60;;;;;;5073695;28;20300;-43
2022/04/04 10:22:43;;;;;;;;;;;23.00;43.60;;;;;;5074565;28;20016;-43
2022/04/04 10:25:12;;;;;;;;;;;22.90;43.50;;;;;;5074613;28;19928;-45
2022/04/04 10:27:38;;;;;;;;;;;23.00;43.50;;;;;;5056412;28;20024;-42
2022/04/04 10:30:07;;;;;;;;;;;23.00;43.50;;;;;;5087667;28;20006;-42
2022/04/04 10:32:34;;;;;;;;;;;23.00;43.50;;;;;;5094397;28;19924;-42
2022/04/04 10:35:20;;;;;;;;;;;23.00;43.50;;;;;;5094725;28;19977;-41
2022/04/04 10:37:47;;;;;;;;;;;23.10;43.60;;;;;;5094194;28;19928;-42
2022/04/04 10:40:18;;;;;;;;;;;23.00;43.40;;;;;;5094164;28;20434;-42
2022/04/04 10:42:48;;;;;;;;;;;23.10;43.50;;;;;;5076430;28;19981;-42
2022/04/04 10:45:18;;;;;;;;;;;23.10;43.40;;;;;;5093331;28;19924;-41
2022/04/04 10:47:46;;;;;;;;;;;23.10;43.40;;;;;;5094302;28;19955;-44
2022/04/04 10:50:33;;;;;;;;;;;23.10;43.40;;;;;;5094345;28;19924;-42
2022/04/04 10:53:01;;;;;;;;;;;23.10;43.40;;;;;;5094099;28;19924;-42
2022/04/04 10:55:36;;;;;;;;;;;23.20;43.40;;;;;;5093933;28;19946;-42
2022/04/04 10:58:09;;;;;;;;;;;23.20;43.30;;;;;;5094095;28;20303;-42
2022/04/04 11:00:54;;;;;;;;;;;23.20;43.20;;;;;;5078115;28;19971;-49
2022/04/04 11:03:31;;;;;;;;;;;23.30;43.30;;;;;;5073671;28;19967;-42
2022/04/04 11:09:00;;;;;;;;;;;23.40;43.10;;;;;;5073449;28;20296;-42
2022/04/04 11:11:44;;;;;;;;;;;23.40;43.00;;;;;;5073652;28;19929;-43
2022/04/04 11:14:12;;;;;;;;;;;23.50;43.00;;;;;;5075617;28;21975;-43
2022/04/04 11:16:57;;;;;;;;;;;23.50;42.90;;;;;;5075864;28;20391;-42
2022/04/04 11:19:27;;;;;;;;;;;23.50;42.80;;;;;;5093439;28;19977;-42
2022/04/04 11:21:55;;;;;;;;;;;23.60;42.80;;;;;;5093671;28;19997;-42
2022/04/04 11:24:22;;;;;;;;;;;23.60;42.70;;;;;;5094056;28;19989;-42
2022/04/04 11:26:50;;;;;;;;;;;23.60;42.70;;;;;;5093974;28;20027;-43
2022/04/04 11:29:21;;;;;;;;;;;23.60;42.70;;;;;;5092964;28;19924;-44
2022/04/04 11:31:48;;;;;;;;;;;23.70;42.70;;;;;;5076633;28;19924;-43
2022/04/04 11:34:15;;;;;;;;;;;23.70;42.70;;;;;;5097553;28;19973;-42
2022/04/04 11:36:43;;;;;;;;;;;23.70;42.70;;;;;;5097990;28;19967;-41
2022/04/04 11:39:10;;;;;;;;;;;23.70;42.80;;;;;;5097674;28;19924;-41
2022/04/04 11:41:46;;;;;;;;;;;23.70;42.70;;;;;;5097953;28;19974;-49
2022/04/04 11:44:34;;;;;;;;;;;23.70;42.70;;;;;;5096939;28;19928;-46
2022/04/04 11:47:02;;;;;;;;;;;23.70;42.70;;;;;;5097805;28;20339;-48
2022/04/04 11:49:33;;;;;;;;;;;23.70;42.70;;;;;;5079607;28;20023;-45
2022/04/04 11:52:04;;;;;;;;;;;23.60;42.60;;;;;;5097424;28;19925;-47
2022/04/04 11:54:40;;;;;;;;;;;23.70;42.70;;;;;;5097860;28;19924;-42
2022/04/04 11:57:08;;;;;;;;;;;23.70;42.70;;;;;;5097365;28;19960;-43
2022/04/04 11:59:45;;;;;;;;;;;23.70;42.80;;;;;;5078582;28;19924;-44
2022/04/04 12:02:13;;;;;;;;;;;23.70;42.70;;;;;;5097673;28;19955;-43
2022/04/04 12:04:42;;;;;;;;;;;23.70;42.70;;;;;;5097289;28;19925;-43
2022/04/04 12:07:10;;;;;;;;;;;23.70;42.70;;;;;;5097349;28;20329;-42
2022/04/04 12:09:37;;;;;;;;;;;23.70;42.70;;;;;;5097167;28;19971;-42
2022/04/04 12:12:04;;;;;;;;;;;23.70;42.70;;;;;;5097131;28;19928;-42
2022/04/04 12:14:32;;;;;;;;;;;23.70;42.70;;;;;;5096492;28;19977;-41
2022/04/04 12:16:59;;;;;;;;;;;23.70;42.70;;;;;;5096908;28;20333;-43
2022/04/04 12:19:28;;;;;;;;;;;23.70;42.80;;;;;;5096948;28;20017;-41
2022/04/04 12:21:56;;;;;;;;;;;23.70;42.70;;;;;;5097192;28;19924;-45
2022/04/04 12:27:13;;;;;;;;;;;23.70;42.70;;;;;;5096900;28;19924;-43
2022/04/04 12:29:44;;;;;;;;;;;23.70;42.70;;;;;;5096111;28;20303;-43
2022/04/04 12:32:15;;;;;;;;;;;23.70;42.70;;;;;;5096837;28;19924;-43
2022/04/04 12:34:55;;;;;;;;;;;23.70;42.70;;;;;;5096654;28;19924;-43
2022/04/04 12:37:42;;;;;;;;;;;23.80;42.70;;;;;;5096887;28;20036;-43
2022/04/04 12:40:12;;;;;;;;;;;23.70;42.70;;;;;;5096928;28;19924;-43
2022/04/04 12:42:39;;;;;;;;;;;23.70;42.70;;;;;;5096639;28;19935;-42
2022/04/04 12:45:07;;;;;;;;;;;23.70;42.80;;;;;;5093339;28;19931;-44
2022/04/04 12:47:34;;;;;;;;;;;23.70;42.80;;;;;;5076193;28;19924;-44
2022/04/04 12:50:13;;;;;;;;;;;23.70;42.80;;;;;;5076061;28;19924;-42
2022/04/04 12:52:57;;;;;;;;;;;23.70;42.80;;;;;;5076245;28;19924;-42
2022/04/04 12:55:24;;;;;;;;;;;23.70;42.70;;;;;;5076035;28;19973;-45
2022/04/04 12:57:52;;;;;;;;;;;23.80;42.80;;;;;;5058311;28;20341;-43
2022/04/04 13:00:35;;;;;;;;;;;23.80;42.80;;;;;;5075764;28;19978;-46
2022/04/04 13:03:17;;;;;;;;;;;23.80;42.70;;;;;;5075941;28;19968;-49
2022/04/04 13:05:46;;;;;;;;;;;23.80;42.70;;;;;;5057952;28;19925;-46
2022/04/04 13:08:17;;;;;;;;;;;23.80;42.80;;;;;;5076120;28;20338;-46
2022/04/04 13:11:00;;;;;;;;;;;23.80;42.80;;;;;;5075744;28;19975;-41
2022/04/04 13:13:26;;;;;;;;;;;23.70;42.80;;;;;;5076107;28;20019;-41
2022/04/04 13:15:53;;;;;;;;;;;23.80;42.80;;;;;;5081336;28;19950;-41
2022/04/04 13:18:41;;;;;;;;;;;23.80;42.80;;;;;;5096216;28;19997;-41
2022/04/04 13:21:08;;;;;;;;;;;23.70;42.80;;;;;;5095516;28;19924;-42
2022/04/04 13:23:34;;;;;;;;;;;23.70;42.80;;;;;;5095757;28;20014;-41
2022/04/04 13:26:03;;;;;;;;;;;23.70;42.80;;;;;;5095470;28;19924;-41
2022/04/04 13:28:30;;;;;;;;;;;23.70;42.90;;;;;;5095607;28;19932;-41
2022/04/04 13:30:57;;;;;;;;;;;23.70;43.00;;;;;;5077054;28;19978;-43
2022/04/04 13:33:23;;;;;;;;;;;23.70;43.00;;;;;;5095845;28;19969;-43
2022/04/04 13:35:51;;;;;;;;;;;23.70;43.60;;;;;;5077695;28;19924;-42
2022/04/04 13:38:19;;;;;;;;;;;23.70;43.00;;;;;;5095489;28;19928;-42
2022/04/04 13:40:47;;;;;;;;;;;23.70;43.00;;;;;;5095538;28;19930;-41
2022/04/04 13:43:14;;;;;;;;;;;23.70;43.00;;;;;;5095380;28;19924;-44
2022/04/04 13:45:41;;;;;;;;;;;23.70;43.00;;;;;;5094264;28;19924;-42
2022/04/04 13:48:08;;;;;;;;;;;23.70;43.10;;;;;;5095478;28;19924;-41
2022/04/04 13:50:35;;;;;;;;;;;23.70;43.10;;;;;;5095037;28;19978;-46
2022/04/04 13:53:02;;;;;;;;;;;23.70;43.10;;;;;;5095029;28;19973;-46
2022/04/04 13:55:29;;;;;;;;;;;23.70;43.10;;;;;;5094029;28;19924;-41
2022/04/04 13:57:56;;;;;;;;;;;23.70;43.10;;;;;;5094898;28;19931;-44
2022/04/04 14:00:24;;;;;;;;;;;23.70;43.20;;;;;;5095318;28;19924;-44
2022/04/04 14:02:51;;;;;;;;;;;23.70;43.20;;;;;;5093933;28;19924;-44
2022/04/04 14:05:18;;;;;;;;;;;23.60;43.10;;;;;;5094796;28;20403;-41
2022/04/04 14:08:06;;;;;;;;;;;23.60;43.10;;;;;;5094763;28;19928;-48
2022/04/04 14:10:34;;;;;;;;;;;23.60;43.10;;;;;;5094534;28;20441;-42
2022/04/04 14:13:02;;;;;;;;;;;23.60;43.20;;;;;;5094281;28;20436;-47
2022/04/04 14:15:29;;;;;;;;;;;23.60;43.20;;;;;;5094408;28;19924;-44
2022/04/04 14:17:56;;;;;;;;;;;23.60;43.20;;;;;;5076335;28;19979;-50
2022/04/04 14:20:23;;;;;;;;;;;23.60;43.20;;;;;;5073962;28;19978;-46
2022/04/04 14:22:50;;;;;;;;;;;23.60;43.20;;;;;;5075112;28;19924;-41
2022/04/04 14:25:17;;;;;;;;;;;23.60;43.20;;;;;;5074328;28;19985;-42
2022/04/04 14:27:47;;;;;;;;;;;23.60;43.20;;;;;;5074657;28;20291;-42
2022/04/04 14:30:15;;;;;;;;;;;23.60;43.20;;;;;;5074231;28;19939;-44
2022/04/04 14:32:46;;;;;;;;;;;23.60;43.30;;;;;;5070009;28;19924;-42